Flight Track Log - Related Links

Times and Time Zones

All times are in EDT time to prevent confusion due to time zone crossing. See the SWA378 flight status page for this flight to view local times or setup timezone preferences in your user account.

Time Position Orientation Groundspeed Altitude Reporting Facility
EDT Latitude Longitude Course Direction KTS MPH feet Rate Location/Type
Tue 09:50:54 PM 39.1667 -76.7500 270° West 204 235 3,100  Level Potomac TRACON
Tue 09:52:47 PM 39.1319 -76.6353 111° Southeast 275 316 7,000 2,724 Climbing Washington Center
Tue 09:53:48 PM 39.1392 -76.4961 86° East 285 328 11,000 3,372 Climbing Washington Center
Tue 09:54:48 PM 39.1422 -76.3622 88° East 324 373 13,800 3,176 Climbing Washington Center
Tue 09:55:47 PM 39.1472 -76.2125 87° East 381 438 17,300 3,150 Climbing Washington Center
Tue 09:56:00 PM 39.1500 -76.5392 270° West  Level FlightAware Approximate
Tue 09:56:48 PM 39.1708 -76.0628 78° East 414 476 20,100  Level Washington Center
Tue 09:57:46 PM 39.1858 -75.9103 83° East 426 490 23,200 2,773 Climbing Washington Center
Tue 09:58:47 PM 39.2569 -75.7953 51° Northeast 395 455 25,600 2,350 Climbing Washington Center
Tue 09:59:46 PM 39.3447 -75.6961 41° Northeast 400 460 27,900 1,714 Climbing Washington Center
Tue 10:00:46 PM 39.4406 -75.6131 34° Northeast 400 460 29,000 541 Climbing Washington Center
Tue 10:01:48 PM 39.5322 -75.5217 38° Northeast 411 473 29,000  Level Washington Center
Tue 10:02:46 PM 39.6114 -75.4056 48° Northeast 416 479 29,000  Level Washington Center
Tue 10:03:47 PM 39.6881 -75.2894 49° Northeast 416 479 29,000  Level Washington Center
Tue 10:04:48 PM 39.7650 -75.1731 49° Northeast 421 484 29,000  Level Washington Center
Tue 10:05:53 PM 39.8442 -75.0481 50° Northeast 437 503 29,000  Level New York Center
Tue 10:06:54 PM 39.9211 -74.9364 48° Northeast 431 496 29,000  Level New York Center
Tue 10:07:54 PM 40.0089 -74.8142 47° Northeast 418 481 29,000  Level New York Center
Tue 10:08:55 PM 40.0908 -74.7322 37° Northeast 411 473 29,000  Level New York Center
Tue 10:09:54 PM 40.1756 -74.6311 42° Northeast 406 467 29,000  Level New York Center
Tue 10:10:54 PM 40.2667 -74.5139 44° Northeast 406 467 29,000  Level New York Center
Tue 10:11:55 PM 40.3492 -74.4094 44° Northeast 412 474 29,000  Level New York Center
Tue 10:12:53 PM 40.4272 -74.3153 43° Northeast 412 474 29,000  Level New York Center
Tue 10:13:54 PM 40.5158 -74.2053 43° Northeast 405 466 29,000  Level New York Center
Tue 10:14:55 PM 40.5981 -74.1028 43° Northeast 405 466 29,000 -1,427 Level New York Center
Tue 10:17:20 PM 40.7739 -73.8817 44° Northeast 397 457 24,100 -1,471 Descending Boston Center
Tue 10:18:19 PM 40.8692 -73.7686 42° Northeast 383 441 24,000 -450 Descending Boston Center
Tue 10:19:20 PM 40.9369 -73.6792 45° Northeast 378 435 23,200 -496 Descending Boston Center
Tue 10:20:20 PM 41.0150 -73.5872 42° Northeast 373 429 23,000 -202 Descending Boston Center
Tue 10:21:19 PM 41.1069 -73.5667 10° North 350 403 22,800 -958 Descending Boston Center
Tue 10:22:19 PM 41.1961 -73.5850 351° North 316 364 21,100 -1,150 Descending Boston Center
Tue 10:23:19 PM 41.2878 -73.6003 353° North 316 364 20,500 -545 Descending Boston Center
Tue 10:24:20 PM 41.3814 -73.6131 354° North 321 369 20,000 -300 Descending Boston Center
Tue 10:25:19 PM 41.4708 -73.6258 354° North 326 375 19,900 -403 Descending Boston Center
Tue 10:26:19 PM 41.5625 -73.6414 353° North 333 383 19,200 -750 Descending Boston Center
Tue 10:27:19 PM 41.6667 -73.6544 355° North 333 383 18,400 -700 Descending Boston Center
Tue 10:28:19 PM 41.7478 -73.6672 353° North 333 383 17,800 -650 Descending Boston Center
Tue 10:29:19 PM 41.8517 -73.6831 354° North 333 383 17,100 -1,212 Descending Boston Center
Tue 10:30:03 PM 41.9225 -73.6928 354° North 334 384 15,700 -1,672 Descending Boston Center
Tue 10:30:20 PM 41.9350 -73.6931 359° North 333 383 15,400 -1,970 Descending Boston Center
Tue 10:31:10 PM 42.0161 -73.7058 353° North 318 366 13,500 -2,017 Descending Boston Center
Tue 10:32:16 PM 42.1119 -73.7192 354° North 321 369 11,500 -1,181 Descending Boston Center
Tue 10:33:17 PM 42.2075 -73.7378 352° North 324 373 11,000 -836 Descending Boston Center
Tue 10:34:18 PM 42.2844 -73.7450 356° North 268 308 9,800 -1,304 Descending Boston Center
Tue 10:35:12 PM 42.3511 -73.7606 350° North 265 305 8,500 -1,565 Descending Boston Center
Tue 10:36:13 PM 42.4261 -73.7678 356° North 265 305 6,800 -1,388 Descending Boston Center
Tue 10:37:13 PM 42.4989 -73.7778 354° North 264 304 5,700 -1,537 Descending Boston Center
Tue 10:38:14 PM 42.5633 -73.7903 352° North 233 268 3,700 -1,574 Descending Boston Center
Tue 10:39:15 PM 42.6217 -73.7972 355° North 215 247 2,500 -1,096 Descending Boston Center
Tue 10:40:09 PM 42.6694 -73.8039 354° North 179 206 1,600 9,919 Descending Boston Center
Tue 10:41:19 PM 42.7544 -73.8314 347° North 226 260 23,000 9,877 Climbing Boston Center
Tue 10:42:19 PM 42.8169 -73.8467 350° North 226 260 23,000  Level Boston Center
Tue 10:43:19 PM 42.8792 -73.8625 349° North 226 260 23,000  Level Boston Center
Tue 10:44:19 PM 42.8917 -73.8656 350° North 226 260 23,000  Level Boston Center

Login

Don't have an account? Register now (free) for customized features, flight alerts, and more!